createdAt,value
2019-02-23T00:02:29.217Z,65.50
2019-02-23T00:04:59.337Z,65.70
2019-02-23T00:07:29.502Z,65.70
2019-02-23T00:09:59.621Z,65.90
2019-02-23T00:12:30.949Z,66.10
2019-02-23T00:15:01.111Z,66.40
2019-02-23T00:17:31.384Z,67.50
2019-02-23T00:20:01.665Z,66.70
2019-02-23T00:22:33.196Z,66.80
2019-02-23T00:25:17.323Z,66.60
2019-02-23T00:27:51.818Z,66.80
2019-02-23T00:30:21.227Z,66.90
2019-02-23T00:32:51.158Z,66.90
2019-02-23T00:35:21.286Z,67.30
2019-02-23T00:37:51.440Z,66.90
2019-02-23T00:40:37.088Z,66.80
2019-02-23T00:43:08.808Z,67.00
2019-02-23T00:45:39.918Z,68.20
2019-02-23T00:48:10.158Z,67.50
2019-02-23T00:50:40.293Z,67.70
2019-02-23T00:53:10.456Z,67.80
2019-02-23T00:55:51.016Z,67.70
2019-02-23T00:58:26.972Z,68.10
2019-02-23T01:01:03.536Z,68.40
2019-02-23T01:03:33.751Z,68.00
2019-02-23T01:06:05.352Z,68.30
2019-02-23T01:08:35.522Z,68.20
2019-02-23T01:11:05.538Z,68.20
2019-02-23T01:13:35.713Z,68.20
2019-02-23T01:16:05.902Z,69.50
2019-02-23T01:18:47.073Z,68.80
2019-02-23T01:21:17.079Z,68.60
2019-02-23T01:23:47.299Z,68.90
2019-02-23T01:26:17.303Z,69.70
2019-02-23T01:28:47.437Z,68.90
2019-02-23T01:31:17.541Z,68.60
2019-02-23T01:33:49.163Z,68.80
2019-02-23T01:36:25.226Z,69.00
2019-02-23T01:39:21.458Z,69.20
2019-02-23T01:41:51.643Z,69.60
2019-02-23T01:44:27.863Z,69.30
2019-02-23T01:46:58.031Z,69.40
2019-02-23T01:49:30.986Z,69.30
2019-02-23T01:52:01.440Z,69.20
2019-02-23T01:54:31.568Z,69.20
2019-02-23T01:57:01.679Z,69.40
2019-02-23T01:59:31.879Z,69.80
2019-02-23T02:02:02.056Z,69.70
2019-02-23T02:04:32.242Z,69.20
2019-02-23T02:07:02.333Z,69.10
2019-02-23T02:09:32.479Z,69.40
2019-02-23T02:12:02.710Z,69.60
2019-02-23T02:14:32.878Z,69.80
2019-02-23T02:17:16.605Z,69.30
2019-02-23T02:19:46.031Z,69.30
2019-02-23T02:22:15.747Z,69.70
2019-02-23T02:24:46.215Z,70.50
2019-02-23T02:27:59.716Z,71.30
2019-02-23T02:30:31.666Z,71.30
2019-02-23T02:33:01.844Z,71.60
2019-02-23T02:35:32.068Z,71.60
2019-02-23T02:38:02.151Z,72.30
2019-02-23T02:40:32.339Z,71.10
2019-02-23T02:43:02.533Z,69.30
2019-02-23T02:45:39.507Z,69.60
2019-02-23T02:48:15.343Z,70.10
2019-02-23T02:50:48.496Z,70.20
2019-02-23T02:53:18.570Z,69.70
2019-02-23T02:55:49.122Z,69.30
2019-02-23T02:58:22.137Z,69.20
2019-02-23T03:00:52.508Z,69.70
2019-02-23T03:03:22.538Z,70.00
2019-02-23T03:05:52.796Z,70.70
2019-02-23T03:08:22.971Z,69.80
2019-02-23T03:10:53.211Z,69.30
2019-02-23T03:13:26.040Z,69.60
2019-02-23T03:15:56.233Z,70.10
2019-02-23T03:18:26.368Z,70.70
2019-02-23T03:20:56.565Z,70.90
2019-02-23T03:23:26.786Z,70.30
2019-02-23T03:25:57.146Z,70.40
2019-02-23T03:28:28.805Z,70.80
2019-02-23T03:30:58.951Z,71.70
2019-02-23T03:33:29.064Z,71.80
2019-02-23T03:35:59.283Z,72.50
2019-02-23T03:38:37.075Z,73.10
2019-02-23T03:41:07.327Z,73.30
2019-02-23T03:43:37.289Z,73.80
2019-02-23T03:46:07.260Z,74.20
2019-02-23T03:48:45.119Z,74.50
2019-02-23T03:51:15.303Z,74.30
2019-02-23T03:53:45.443Z,73.80
2019-02-23T03:56:15.611Z,75.50
2019-02-23T03:58:45.733Z,77.50
2019-02-23T04:01:15.941Z,76.30
2019-02-23T04:03:46.021Z,76.80
2019-02-23T04:06:16.233Z,77.60
2019-02-23T04:08:46.320Z,79.00
2019-02-23T04:11:16.547Z,77.80
2019-02-23T04:13:46.577Z,76.90
2019-02-23T04:16:16.769Z,75.70
2019-02-23T04:18:46.899Z,76.90
2019-02-23T04:21:17.116Z,76.50
2019-02-23T04:23:47.345Z,76.70
2019-02-23T04:26:17.518Z,77.60
2019-02-23T04:28:47.581Z,78.50
2019-02-23T04:31:17.768Z,78.90
2019-02-23T04:33:47.705Z,79.30
2019-02-23T04:36:17.822Z,79.20
2019-02-23T04:38:51.409Z,80.20
2019-02-23T04:41:22.545Z,80.50
2019-02-23T04:43:52.905Z,81.10
2019-02-23T04:46:23.298Z,81.50
2019-02-23T04:48:53.928Z,83.50
2019-02-23T04:51:24.127Z,83.00
2019-02-23T04:53:54.256Z,83.80
2019-02-23T04:56:32.058Z,84.30
2019-02-23T04:59:02.152Z,85.00
2019-02-23T05:01:35.508Z,84.90
2019-02-23T05:04:04.843Z,84.60
2019-02-23T05:06:34.769Z,84.50
2019-02-23T05:09:05.357Z,83.90
2019-02-23T05:11:35.561Z,84.60
2019-02-23T05:14:05.679Z,85.30
2019-02-23T05:16:35.821Z,85.30
2019-02-23T05:19:05.994Z,85.50
2019-02-23T05:21:36.281Z,85.20
2019-02-23T05:24:06.289Z,85.20
2019-02-23T05:26:36.530Z,85.30
2019-02-23T05:29:06.636Z,85.80
2019-02-23T05:31:45.234Z,87.00
2019-02-23T05:34:15.355Z,89.00
2019-02-23T05:36:45.505Z,89.40
2019-02-23T05:39:17.734Z,89.80
2019-02-23T05:41:47.467Z,89.90
2019-02-23T05:44:19.111Z,90.00
2019-02-23T05:46:49.334Z,90.10
2019-02-23T05:49:19.535Z,89.80
2019-02-23T05:51:49.741Z,90.20
2019-02-23T05:54:19.988Z,89.20
2019-02-23T05:56:50.231Z,89.00
2019-02-23T05:59:20.388Z,89.10
2019-02-23T06:01:50.555Z,89.50
2019-02-23T06:04:20.675Z,89.50
2019-02-23T06:06:51.867Z,89.00
2019-02-23T06:09:21.985Z,88.90
2019-02-23T06:11:52.180Z,90.00
2019-02-23T06:14:22.310Z,90.20
2019-02-23T06:16:54.630Z,90.30
2019-02-23T06:19:25.014Z,90.00
2019-02-23T06:21:55.257Z,89.90
2019-02-23T06:24:25.680Z,89.90
2019-02-23T06:26:55.843Z,89.80
2019-02-23T06:29:26.199Z,89.60
2019-02-23T06:31:56.328Z,89.70
2019-02-23T06:34:26.632Z,89.70
2019-02-23T06:36:56.803Z,89.50
2019-02-23T06:39:27.112Z,89.10
2019-02-23T06:41:57.356Z,90.00
2019-02-23T06:44:27.675Z,90.30
2019-02-23T06:47:03.858Z,90.20
2019-02-23T06:49:34.055Z,89.60
2019-02-23T06:52:05.921Z,88.00
2019-02-23T06:54:36.000Z,87.20
2019-02-23T06:57:06.219Z,86.50
2019-02-23T06:59:36.364Z,85.90
2019-02-23T07:02:06.602Z,84.60
2019-02-23T07:04:37.462Z,83.40
2019-02-23T07:07:07.748Z,82.30
2019-02-23T07:09:44.142Z,80.40
2019-02-23T07:12:14.296Z,78.90
2019-02-23T07:14:44.324Z,77.70
2019-02-23T07:17:14.452Z,77.60
2019-02-23T07:19:44.476Z,77.30
2019-02-23T07:22:15.833Z,77.50
2019-02-23T07:24:46.060Z,77.10
2019-02-23T07:27:16.134Z,76.80
2019-02-23T07:29:46.234Z,76.40
2019-02-23T07:32:16.393Z,76.40
2019-02-23T07:34:46.463Z,75.80
2019-02-23T07:37:16.658Z,74.40
2019-02-23T07:39:46.666Z,73.30
2019-02-23T07:42:16.846Z,73.60
2019-02-23T07:44:46.932Z,72.90
2019-02-23T07:47:17.011Z,72.00
2019-02-23T07:49:47.032Z,71.60
2019-02-23T07:52:26.071Z,71.10
2019-02-23T07:54:48.790Z,69.80
2019-02-23T07:57:19.048Z,69.60
2019-02-23T07:59:49.060Z,67.20
2019-02-23T08:02:19.262Z,65.80
2019-02-23T08:04:49.344Z,65.00
2019-02-23T08:07:20.666Z,65.10
2019-02-23T08:09:52.542Z,65.70
2019-02-23T08:12:23.917Z,65.90
2019-02-23T08:14:54.047Z,62.20
2019-02-23T08:17:24.198Z,60.70
2019-02-23T08:19:55.241Z,60.90
2019-02-23T08:22:25.651Z,60.50
2019-02-23T08:24:55.771Z,59.90
2019-02-23T08:27:26.015Z,58.70
2019-02-23T08:29:56.020Z,58.30
2019-02-23T08:32:27.260Z,59.00
2019-02-23T08:35:00.430Z,59.40
2019-02-23T08:37:30.446Z,59.30
2019-02-23T08:40:00.323Z,59.00
2019-02-23T08:42:32.158Z,57.90
2019-02-23T08:45:02.176Z,55.40
2019-02-23T08:47:32.226Z,54.50
2019-02-23T08:50:02.339Z,55.00
2019-02-23T08:52:32.666Z,55.40
2019-02-23T08:55:02.680Z,55.90
2019-02-23T08:57:32.893Z,56.30
2019-02-23T09:00:03.402Z,56.00
2019-02-23T09:02:33.661Z,52.10
2019-02-23T09:05:03.960Z,50.60
2019-02-23T09:07:34.280Z,51.20
2019-02-23T09:10:06.065Z,51.60
2019-02-23T09:12:36.234Z,51.00
2019-02-23T09:15:07.242Z,51.50
2019-02-23T09:17:37.392Z,52.50
2019-02-23T09:20:09.378Z,53.60
2019-02-23T09:22:39.328Z,54.80
2019-02-23T09:25:10.513Z,54.50
2019-02-23T09:27:40.585Z,54.70
2019-02-23T09:30:14.385Z,54.70
2019-02-23T09:32:45.630Z,55.00
2019-02-23T09:35:15.649Z,55.40
2019-02-23T09:37:45.758Z,55.20
2019-02-23T09:40:18.962Z,54.10
2019-02-23T09:42:49.178Z,54.20
2019-02-23T09:45:19.268Z,54.40
2019-02-23T09:47:49.435Z,54.90
2019-02-23T09:50:19.521Z,54.80
2019-02-23T09:52:50.667Z,54.20
2019-02-23T09:55:20.752Z,54.30
2019-02-23T09:57:50.848Z,53.20
2019-02-23T10:00:20.877Z,52.50
2019-02-23T10:02:51.906Z,52.10
2019-02-23T10:05:21.912Z,52.50
2019-02-23T10:07:51.998Z,52.50
2019-02-23T10:10:21.959Z,53.50
2019-02-23T10:12:52.119Z,53.30
2019-02-23T10:15:22.224Z,53.80
2019-02-23T10:17:52.410Z,52.00
2019-02-23T10:20:22.402Z,50.60
2019-02-23T10:22:52.666Z,51.10
2019-02-23T10:25:22.672Z,52.60
2019-02-23T10:27:53.074Z,53.00
2019-02-23T10:30:23.103Z,52.90
2019-02-23T10:32:54.190Z,52.10
2019-02-23T10:35:24.196Z,52.20
2019-02-23T10:37:54.186Z,52.60
2019-02-23T10:40:24.303Z,53.30
2019-02-23T10:42:54.416Z,52.10
2019-02-23T10:45:24.460Z,51.20
2019-02-23T10:47:54.474Z,51.80
2019-02-23T10:50:24.592Z,50.50
2019-02-23T10:52:54.632Z,50.00
2019-02-23T10:55:24.653Z,50.00
2019-02-23T10:57:54.736Z,51.00
2019-02-23T11:00:24.800Z,52.00
2019-02-23T11:02:54.868Z,52.30
2019-02-23T11:05:25.314Z,51.70
2019-02-23T11:07:55.455Z,52.40
2019-02-23T11:10:25.578Z,51.10
2019-02-23T11:12:55.693Z,51.70
2019-02-23T11:15:25.905Z,51.40
2019-02-23T11:17:55.983Z,50.90
2019-02-23T11:20:26.401Z,50.50
2019-02-23T11:22:56.734Z,50.30
2019-02-23T11:25:26.845Z,49.90
2019-02-23T11:27:57.028Z,49.50
2019-02-23T11:30:28.273Z,49.20
2019-02-23T11:32:58.431Z,49.70
2019-02-23T11:35:28.399Z,50.20
2019-02-23T11:37:58.474Z,48.50
2019-02-23T11:40:28.580Z,48.00
2019-02-23T11:42:58.738Z,48.30
2019-02-23T11:45:30.909Z,48.50
2019-02-23T11:48:00.492Z,47.60
2019-02-23T11:50:30.816Z,48.30
2019-02-23T11:53:00.984Z,48.20
2019-02-23T11:55:31.102Z,48.10
2019-02-23T11:58:01.186Z,48.30
2019-02-23T12:00:31.298Z,48.50
2019-02-23T12:03:01.400Z,48.50
2019-02-23T12:05:31.435Z,48.10
2019-02-23T12:08:01.536Z,48.50
2019-02-23T12:10:31.516Z,48.40
2019-02-23T12:13:01.680Z,48.30
2019-02-23T12:15:31.716Z,47.80
2019-02-23T12:18:01.791Z,48.50
2019-02-23T12:20:31.926Z,48.50
2019-02-23T12:23:01.992Z,48.80
2019-02-23T12:25:32.114Z,48.30
2019-02-23T12:28:02.218Z,47.70
2019-02-23T12:30:32.857Z,47.00
2019-02-23T12:33:03.039Z,46.50
2019-02-23T12:35:33.006Z,46.10
2019-02-23T12:38:05.989Z,46.30
2019-02-23T12:40:35.998Z,46.40
2019-02-23T12:43:06.340Z,46.50
2019-02-23T12:45:36.422Z,46.40
2019-02-23T12:48:06.455Z,47.00
2019-02-23T12:50:36.437Z,46.90
2019-02-23T12:53:06.628Z,47.00
2019-02-23T12:55:37.700Z,46.70
2019-02-23T12:58:07.844Z,46.20
2019-02-23T13:00:37.853Z,45.60
2019-02-23T13:03:07.936Z,45.60
2019-02-23T13:05:37.936Z,45.90
2019-02-23T13:08:08.015Z,46.20
2019-02-23T13:10:38.102Z,46.10
2019-02-23T13:13:18.231Z,44.50
2019-02-23T13:16:02.646Z,44.60
2019-02-23T13:18:44.828Z,44.40
2019-02-23T13:21:32.800Z,44.60
2019-02-23T13:24:28.233Z,44.40
2019-02-23T13:27:16.867Z,42.90
2019-02-23T13:29:58.934Z,42.40
2019-02-23T13:32:56.526Z,42.30
2019-02-23T13:35:53.938Z,42.60
2019-02-23T13:38:43.707Z,43.00
2019-02-23T13:41:25.562Z,43.30
2019-02-23T13:44:13.928Z,43.20
2019-02-23T13:46:47.220Z,43.90
2019-02-23T13:49:42.955Z,43.00
2019-02-23T13:52:36.511Z,42.60
2019-02-23T13:55:34.056Z,42.60
2019-02-23T13:58:13.295Z,43.50
2019-02-23T14:00:55.396Z,43.70
2019-02-23T14:03:40.533Z,43.80
2019-02-23T14:06:13.801Z,43.00
2019-02-23T14:09:04.412Z,42.70
2019-02-23T14:12:05.041Z,42.40
2019-02-23T14:14:44.068Z,42.00
2019-02-23T14:17:34.786Z,41.60
2019-02-23T14:20:22.480Z,40.50
2019-02-23T14:23:21.463Z,39.20
2019-02-23T14:26:03.982Z,39.40
2019-02-23T14:28:48.839Z,39.40
2019-02-23T14:31:31.047Z,39.20
2019-02-23T14:34:30.209Z,39.20
2019-02-23T14:37:24.633Z,39.20
2019-02-23T14:40:06.838Z,40.20
2019-02-23T14:43:11.984Z,39.90
2019-02-23T14:45:54.236Z,39.40
2019-02-23T14:48:39.631Z,39.40
2019-02-23T14:51:32.215Z,39.50
2019-02-23T14:54:08.034Z,39.20
2019-02-23T14:56:50.030Z,39.20
2019-02-23T14:59:25.971Z,39.50
2019-02-23T15:02:01.720Z,40.20
2019-02-23T15:04:40.916Z,40.80
2019-02-23T15:07:14.163Z,41.00
2019-02-23T15:09:47.475Z,40.70
2019-02-23T15:12:32.353Z,41.40
2019-02-23T15:15:08.328Z,41.40
2019-02-23T15:17:47.770Z,41.80
2019-02-23T15:20:39.331Z,42.00
2019-02-23T15:23:21.708Z,42.50
2019-02-23T15:26:14.676Z,42.80
2019-02-23T15:29:09.137Z,43.10
2019-02-23T15:32:06.718Z,43.20
2019-02-23T15:34:45.862Z,42.90
2019-02-23T15:37:23.292Z,43.00
2019-02-23T15:40:08.439Z,42.80
2019-02-23T15:42:54.409Z,43.20
2019-02-23T15:45:39.356Z,43.50
2019-02-23T15:48:27.234Z,43.60
2019-02-23T15:50:57.296Z,44.00
2019-02-23T15:53:27.378Z,44.60
2019-02-23T15:55:57.622Z,45.10
2019-02-23T15:58:29.356Z,45.90
2019-02-23T16:00:59.477Z,46.00
2019-02-23T16:03:29.574Z,46.30
2019-02-23T16:06:00.672Z,46.50
2019-02-23T16:08:30.764Z,46.80
2019-02-23T16:11:00.917Z,46.90
2019-02-23T16:13:30.937Z,47.10
2019-02-23T16:16:01.011Z,47.50
2019-02-23T16:18:31.127Z,47.80
2019-02-23T16:21:01.225Z,48.20
2019-02-23T16:23:35.452Z,48.50
2019-02-23T16:26:02.960Z,48.90
2019-02-23T16:28:32.979Z,49.20
2019-02-23T16:31:03.165Z,49.60
2019-02-23T16:33:33.166Z,50.00
2019-02-23T16:36:03.326Z,50.50
2019-02-23T16:38:33.355Z,50.50
2019-02-23T16:41:03.510Z,50.60
2019-02-23T16:43:33.572Z,50.90
2019-02-23T16:46:03.582Z,51.50
2019-02-23T16:48:34.154Z,51.60
2019-02-23T16:51:04.176Z,51.80
2019-02-23T16:53:34.304Z,52.20
2019-02-23T16:56:04.469Z,52.20
2019-02-23T16:58:34.592Z,52.90
2019-02-23T17:01:04.732Z,52.40
2019-02-23T17:03:34.668Z,53.10
2019-02-23T17:06:04.779Z,53.30
2019-02-23T17:08:34.811Z,53.40
2019-02-23T17:11:06.246Z,53.70
2019-02-23T17:13:36.310Z,53.90
2019-02-23T17:16:06.485Z,54.00
2019-02-23T17:18:36.571Z,54.10
2019-02-23T17:21:06.625Z,54.40
2019-02-23T17:23:36.626Z,54.70
2019-02-23T17:26:06.715Z,54.70
2019-02-23T17:28:38.060Z,54.70
2019-02-23T17:31:08.308Z,55.00
2019-02-23T17:33:38.473Z,55.20
2019-02-23T17:36:08.552Z,55.50
2019-02-23T17:38:38.608Z,55.80
2019-02-23T17:41:08.516Z,56.30
2019-02-23T17:43:40.199Z,56.70
2019-02-23T17:46:12.151Z,57.90
2019-02-23T17:48:42.356Z,57.30
2019-02-23T17:51:12.574Z,57.60
2019-02-23T17:53:42.756Z,58.00
2019-02-23T17:56:14.108Z,58.60
2019-02-23T17:58:44.733Z,59.00
2019-02-23T18:01:15.348Z,59.40
2019-02-23T18:03:45.533Z,59.70
2019-02-23T18:06:15.759Z,60.00
2019-02-23T18:08:45.857Z,60.10
2019-02-23T18:11:15.970Z,60.30
2019-02-23T18:13:46.094Z,60.80
2019-02-23T18:16:16.172Z,61.70
2019-02-23T18:18:46.237Z,62.50
2019-02-23T18:21:16.426Z,62.90
2019-02-23T18:23:46.600Z,63.40
2019-02-23T18:26:21.069Z,63.80
2019-02-23T18:28:48.441Z,64.10
2019-02-23T18:31:18.624Z,64.50
2019-02-23T18:33:48.711Z,65.00
2019-02-23T18:36:18.761Z,65.40
2019-02-23T18:38:48.788Z,65.50
2019-02-23T18:41:18.827Z,65.10
2019-02-23T18:43:49.909Z,65.00
2019-02-23T18:46:20.014Z,64.90
2019-02-23T18:48:51.973Z,65.00
2019-02-23T18:51:21.701Z,65.90
2019-02-23T18:53:51.851Z,65.40
2019-02-23T18:56:29.428Z,65.20
2019-02-23T18:58:53.720Z,65.20
2019-02-23T19:01:23.899Z,65.10
2019-02-23T19:03:56.522Z,65.10
2019-02-23T19:06:28.743Z,65.50
2019-02-23T19:08:58.908Z,65.60
2019-02-23T19:11:29.244Z,65.90
2019-02-23T19:14:00.176Z,66.00
2019-02-23T19:16:32.255Z,66.20
2019-02-23T19:19:02.403Z,66.60
2019-02-23T19:21:32.670Z,66.70
2019-02-23T19:24:02.782Z,67.30
2019-02-23T19:26:38.295Z,67.40
2019-02-23T19:29:04.717Z,67.90
2019-02-23T19:31:34.886Z,68.40
2019-02-23T19:34:05.952Z,68.70
2019-02-23T19:36:36.089Z,69.60
2019-02-23T19:39:06.155Z,68.50
2019-02-23T19:41:37.864Z,68.30
2019-02-23T19:44:08.935Z,68.00
2019-02-23T19:46:42.427Z,67.80
2019-02-23T19:49:11.814Z,66.90
2019-02-23T19:51:41.851Z,66.60
2019-02-23T19:54:13.697Z,66.60
2019-02-23T19:56:46.858Z,66.60
2019-02-23T19:59:15.427Z,66.20
2019-02-23T20:01:48.158Z,66.00
2019-02-23T20:04:18.247Z,65.10
2019-02-23T20:06:48.273Z,65.10
2019-02-23T20:09:18.326Z,64.60
2019-02-23T20:11:50.264Z,64.10
2019-02-23T20:14:20.274Z,64.00
2019-02-23T20:16:56.786Z,63.70
2019-02-23T20:19:43.524Z,63.80
2019-02-23T20:22:13.763Z,63.60
2019-02-23T20:24:43.867Z,63.60
2019-02-23T20:27:14.057Z,64.10
2019-02-23T20:29:44.208Z,64.20
2019-02-23T20:32:14.350Z,64.20
2019-02-23T20:34:51.132Z,64.50
2019-02-23T20:37:21.269Z,64.80
2019-02-23T20:43:22.751Z,64.80
2019-02-23T20:45:52.854Z,64.20
2019-02-23T20:48:23.011Z,64.60
2019-02-23T20:50:53.125Z,65.30
2019-02-23T20:53:23.260Z,65.70
2019-02-23T20:55:53.395Z,66.20
2019-02-23T20:58:23.508Z,66.70
2019-02-23T21:00:53.592Z,67.70
2019-02-23T21:03:23.737Z,68.70
2019-02-23T21:05:54.886Z,69.60
2019-02-23T21:08:38.712Z,69.40
2019-02-23T21:11:08.789Z,69.60
2019-02-23T21:13:38.952Z,69.70
2019-02-23T21:16:10.346Z,70.00
2019-02-23T21:18:43.464Z,70.80
2019-02-23T21:21:17.445Z,70.40
2019-02-23T21:23:57.928Z,70.80
2019-02-23T21:26:28.066Z,70.90
2019-02-23T21:29:14.786Z,70.50
2019-02-23T21:31:50.317Z,70.70
2019-02-23T21:34:20.463Z,70.90
2019-02-23T21:37:10.354Z,71.20
2019-02-23T21:39:40.639Z,71.30
2019-02-23T21:42:10.774Z,71.70
2019-02-23T21:44:40.900Z,72.10
2019-02-23T21:47:11.050Z,71.90
2019-02-23T21:49:41.176Z,72.50
2019-02-23T21:52:16.922Z,72.40
2019-02-23T21:54:47.050Z,72.80
2019-02-23T21:57:22.236Z,72.80
2019-02-23T21:59:48.989Z,73.00
2019-02-23T22:02:19.101Z,73.10
2019-02-23T22:04:50.928Z,73.20
2019-02-23T22:07:21.089Z,73.50
2019-02-23T22:09:51.226Z,73.50
2019-02-23T22:12:21.316Z,73.20
2019-02-23T22:14:54.476Z,73.00
2019-02-23T22:17:24.691Z,73.00
2019-02-23T22:19:54.736Z,73.20
2019-02-23T22:22:24.888Z,73.50
2019-02-23T22:25:12.339Z,74.00
2019-02-23T22:27:59.123Z,74.70
2019-02-23T22:30:35.902Z,74.70
2019-02-23T22:33:06.057Z,75.30
2019-02-23T22:35:43.135Z,75.10
2019-02-23T22:38:13.275Z,75.90
2019-02-23T22:40:43.445Z,75.40
2019-02-23T22:43:15.113Z,76.50
2019-02-23T22:45:54.763Z,76.30
2019-02-23T22:48:24.894Z,76.20
2019-02-23T22:50:55.043Z,76.30
2019-02-23T22:53:25.206Z,76.70
2019-02-23T22:55:55.361Z,76.60
2019-02-23T22:58:25.551Z,76.30
2019-02-23T23:00:57.530Z,76.20
2019-02-23T23:03:43.861Z,75.80
2019-02-23T23:06:15.627Z,76.40
2019-02-23T23:08:48.507Z,76.60
2019-02-23T23:11:22.764Z,76.10
2019-02-23T23:13:52.905Z,76.10
2019-02-23T23:16:23.937Z,76.30
2019-02-23T23:19:03.417Z,76.20
2019-02-23T23:21:41.301Z,76.70
2019-02-23T23:24:11.469Z,77.10
2019-02-23T23:26:45.356Z,77.30
2019-02-23T23:29:15.537Z,77.90
2019-02-23T23:31:45.718Z,77.60
2019-02-23T23:34:17.445Z,77.60
2019-02-23T23:36:47.688Z,77.50
2019-02-23T23:39:17.891Z,77.80
2019-02-23T23:41:50.687Z,77.90
2019-02-23T23:44:47.229Z,78.30
2019-02-23T23:47:17.304Z,78.50
2019-02-23T23:49:57.772Z,79.20
2019-02-23T23:52:27.915Z,79.70
2019-02-23T23:54:58.025Z,79.90
2019-02-23T23:57:28.169Z,80.50
2019-02-23T23:59:58.341Z,80.40
